RYR8MR EBCI-EGBB
Flight info
| Callsign | RYR8MR |
|---|---|
| Flight time | 0h 52m |
| Altitude | 30000 |
| Route | CIV UY50 LUMEN L610 LAM DCT SILVA |
| Aircraft | B38M/M-SDE1FGHILORVWXY/HB1 |
Departure
| Time | 2026-05-01 09:24 |
|---|---|
| Airport | Brussels South Charleroi Airport (EBCI) |
Arrival
| Time | 2026-05-01 10:16 |
|---|---|
| Airport | Birmingham Airport (EGBB) |
| Time | Latitude | Longitude | Altitude | Speed | Heading |
|---|---|---|---|---|---|
| 2026-05-01 08:55 | 50.46869 | 4.47099 | 587 ft | 0 kts | 335° |
| 2026-05-01 09:17 | 50.46858 | 4.47106 | 587 ft | 4 kts | 335° |
| 2026-05-01 09:17 | 50.46837 | 4.47129 | 587 ft | 4 kts | 304° |
| 2026-05-01 09:17 | 50.46835 | 4.47186 | 588 ft | 1 kts | 245° |
| 2026-05-01 09:18 | 50.46836 | 4.47188 | 588 ft | 0 kts | 245° |
| 2026-05-01 09:20 | 50.46835 | 4.47185 | 588 ft | 1 kts | 245° |
| 2026-05-01 09:21 | 50.46818 | 4.47129 | 588 ft | 5 kts | 244° |
| 2026-05-01 09:21 | 50.46790 | 4.47033 | 588 ft | 14 kts | 245° |
| 2026-05-01 09:21 | 50.46706 | 4.46781 | 591 ft | 9 kts | 207° |
| 2026-05-01 09:22 | 50.46609 | 4.46826 | 595 ft | 6 kts | 154° |
| 2026-05-01 09:22 | 50.46526 | 4.46880 | 597 ft | 9 kts | 159° |
| 2026-05-01 09:23 | 50.46449 | 4.46862 | 596 ft | 14 kts | 221° |
| 2026-05-01 09:23 | 50.46299 | 4.46371 | 592 ft | 89 kts | 245° |
| 2026-05-01 09:24 | 50.45437 | 4.43266 | 1011 ft | 198 kts | 249° |
| 2026-05-01 09:24 | 50.44949 | 4.41153 | 1920 ft | 211 kts | 245° |
| 2026-05-01 09:24 | 50.43787 | 4.36832 | 3171 ft | 243 kts | 243° |
| 2026-05-01 09:25 | 50.42222 | 4.31768 | 4243 ft | 277 kts | 242° |
| 2026-05-01 09:25 | 50.41009 | 4.25974 | 6146 ft | 278 kts | 271° |
| 2026-05-01 09:26 | 50.41509 | 4.23044 | 7011 ft | 286 kts | 296° |
| 2026-05-01 09:26 | 50.43683 | 4.17683 | 8470 ft | 295 kts | 300° |
| 2026-05-01 09:26 | 50.44772 | 4.14931 | 9250 ft | 298 kts | 300° |
| 2026-05-01 09:27 | 50.47007 | 4.09331 | 10632 ft | 311 kts | 300° |
| 2026-05-01 09:27 | 50.48179 | 4.06403 | 10957 ft | 330 kts | 300° |
| 2026-05-01 09:27 | 50.49438 | 4.03243 | 11392 ft | 344 kts | 300° |
| 2026-05-01 09:28 | 50.50728 | 4.00019 | 11986 ft | 351 kts | 300° |
| 2026-05-01 09:28 | 50.52017 | 3.96789 | 12714 ft | 355 kts | 300° |
| 2026-05-01 09:28 | 50.53333 | 3.93478 | 13445 ft | 359 kts | 300° |
| 2026-05-01 09:28 | 50.54671 | 3.90120 | 14153 ft | 365 kts | 300° |
| 2026-05-01 09:29 | 50.57755 | 3.83740 | 15566 ft | 373 kts | 322° |
| 2026-05-01 09:29 | 50.60042 | 3.81800 | 16246 ft | 377 kts | 340° |
| 2026-05-01 09:30 | 50.65031 | 3.78899 | 17576 ft | 385 kts | 340° |
| 2026-05-01 09:30 | 50.67561 | 3.77434 | 18237 ft | 389 kts | 340° |
| 2026-05-01 09:30 | 50.72694 | 3.74469 | 19425 ft | 396 kts | 340° |
| 2026-05-01 09:31 | 50.75291 | 3.72968 | 20053 ft | 397 kts | 340° |
| 2026-05-01 09:31 | 50.77885 | 3.71467 | 20637 ft | 400 kts | 340° |
| 2026-05-01 09:31 | 50.83160 | 3.68408 | 21711 ft | 407 kts | 340° |
| 2026-05-01 09:32 | 50.85832 | 3.66857 | 22217 ft | 411 kts | 340° |
| 2026-05-01 09:32 | 50.91201 | 3.63702 | 23274 ft | 417 kts | 338° |
| 2026-05-01 09:32 | 50.93891 | 3.61965 | 23803 ft | 420 kts | 338° |
| 2026-05-01 09:33 | 50.96613 | 3.60216 | 24227 ft | 423 kts | 338° |
| 2026-05-01 09:33 | 50.99342 | 3.58466 | 24659 ft | 425 kts | 338° |
| 2026-05-01 09:33 | 51.04864 | 3.54926 | 25520 ft | 430 kts | 338° |
| 2026-05-01 09:34 | 51.07645 | 3.53140 | 25935 ft | 432 kts | 338° |
| 2026-05-01 09:34 | 51.10439 | 3.51343 | 26356 ft | 434 kts | 338° |
| 2026-05-01 09:34 | 51.16072 | 3.47713 | 27165 ft | 439 kts | 338° |
| 2026-05-01 09:35 | 51.18909 | 3.45882 | 27559 ft | 441 kts | 338° |
| 2026-05-01 09:35 | 51.24318 | 3.41295 | 28313 ft | 443 kts | 316° |
| 2026-05-01 09:35 | 51.26319 | 3.37572 | 28658 ft | 443 kts | 300° |
| 2026-05-01 09:36 | 51.27619 | 3.33132 | 28982 ft | 442 kts | 284° |
| 2026-05-01 09:36 | 51.28389 | 3.28376 | 29290 ft | 444 kts | 281° |
| 2026-05-01 09:36 | 51.29084 | 3.23544 | 29629 ft | 446 kts | 279° |
| 2026-05-01 09:36 | 51.29739 | 3.18716 | 30111 ft | 445 kts | 279° |
| 2026-05-01 09:37 | 51.30376 | 3.13864 | 30240 ft | 445 kts | 279° |
| 2026-05-01 09:37 | 51.32212 | 2.99420 | 30260 ft | 442 kts | 278° |
| 2026-05-01 09:38 | 51.33996 | 2.85138 | 30269 ft | 441 kts | 278° |
| 2026-05-01 09:39 | 51.35796 | 2.70634 | 30252 ft | 442 kts | 278° |
| 2026-05-01 09:39 | 51.36979 | 2.61028 | 30249 ft | 442 kts | 278° |
| 2026-05-01 09:40 | 51.38749 | 2.46534 | 30244 ft | 442 kts | 277° |
| 2026-05-01 09:41 | 51.39920 | 2.36860 | 30264 ft | 442 kts | 277° |
| 2026-05-01 09:41 | 51.41661 | 2.22348 | 30243 ft | 442 kts | 277° |
| 2026-05-01 09:42 | 51.42810 | 2.12683 | 30240 ft | 442 kts | 277° |
| 2026-05-01 09:43 | 51.45143 | 1.93323 | 30237 ft | 442 kts | 277° |
| 2026-05-01 09:43 | 51.46301 | 1.83642 | 30237 ft | 442 kts | 277° |
| 2026-05-01 09:44 | 51.47980 | 1.69171 | 30238 ft | 442 kts | 277° |
| 2026-05-01 09:45 | 51.49096 | 1.59453 | 30236 ft | 442 kts | 276° |
| 2026-05-01 09:45 | 51.50746 | 1.44898 | 30235 ft | 442 kts | 276° |
| 2026-05-01 09:46 | 51.51835 | 1.35199 | 30236 ft | 441 kts | 276° |
| 2026-05-01 09:46 | 51.52914 | 1.25505 | 30233 ft | 441 kts | 276° |
| 2026-05-01 09:47 | 51.53987 | 1.15808 | 30233 ft | 441 kts | 276° |
| 2026-05-01 09:47 | 51.55050 | 1.06097 | 30227 ft | 441 kts | 276° |
| 2026-05-01 09:48 | 51.56098 | 0.96458 | 30230 ft | 441 kts | 276° |
| 2026-05-01 09:48 | 51.57147 | 0.86729 | 30214 ft | 442 kts | 275° |
| 2026-05-01 09:49 | 51.58187 | 0.77013 | 30211 ft | 441 kts | 275° |
| 2026-05-01 09:49 | 51.59220 | 0.67276 | 30210 ft | 441 kts | 275° |
| 2026-05-01 09:50 | 51.60062 | 0.59270 | 30211 ft | 441 kts | 275° |
| 2026-05-01 09:50 | 51.61079 | 0.49537 | 30210 ft | 441 kts | 275° |
| 2026-05-01 09:51 | 51.62087 | 0.39817 | 30206 ft | 433 kts | 274° |
| 2026-05-01 09:51 | 51.62571 | 0.35119 | 30203 ft | 419 kts | 274° |
| 2026-05-01 09:51 | 51.63042 | 0.30524 | 30204 ft | 414 kts | 274° |
| 2026-05-01 09:52 | 51.63973 | 0.21385 | 30207 ft | 413 kts | 274° |
| 2026-05-01 09:52 | 51.65160 | 0.12319 | 30209 ft | 418 kts | 284° |
| 2026-05-01 09:53 | 51.66843 | 0.03424 | 30197 ft | 417 kts | 281° |
| 2026-05-01 09:53 | 51.68445 | -0.05551 | 30214 ft | 416 kts | 281° |
| 2026-05-01 09:54 | 51.70022 | -0.14510 | 30142 ft | 414 kts | 281° |
| 2026-05-01 09:54 | 51.70813 | -0.19024 | 28998 ft | 426 kts | 281° |
| 2026-05-01 09:54 | 51.71623 | -0.23658 | 28104 ft | 433 kts | 281° |
| 2026-05-01 09:55 | 51.72440 | -0.28345 | 27198 ft | 434 kts | 281° |
| 2026-05-01 09:55 | 51.73250 | -0.33002 | 26365 ft | 429 kts | 281° |
| 2026-05-01 09:55 | 51.74051 | -0.37621 | 25560 ft | 425 kts | 281° |
| 2026-05-01 09:55 | 51.74843 | -0.42197 | 24781 ft | 421 kts | 281° |
| 2026-05-01 09:56 | 51.75625 | -0.46732 | 24030 ft | 417 kts | 281° |
| 2026-05-01 09:56 | 51.76398 | -0.51225 | 23186 ft | 413 kts | 281° |
| 2026-05-01 09:56 | 51.77161 | -0.55670 | 22348 ft | 409 kts | 281° |
| 2026-05-01 09:56 | 51.77915 | -0.60077 | 21545 ft | 405 kts | 281° |
| 2026-05-01 09:57 | 51.78659 | -0.64433 | 20763 ft | 401 kts | 281° |
| 2026-05-01 09:57 | 51.79395 | -0.68756 | 20021 ft | 397 kts | 281° |
| 2026-05-01 09:57 | 51.80118 | -0.73010 | 19523 ft | 386 kts | 281° |
| 2026-05-01 09:57 | 51.80818 | -0.77140 | 19116 ft | 374 kts | 281° |
| 2026-05-01 09:58 | 51.81493 | -0.81126 | 18733 ft | 362 kts | 281° |
| 2026-05-01 09:58 | 51.82145 | -0.84992 | 18362 ft | 351 kts | 281° |
| 2026-05-01 09:58 | 51.82777 | -0.88744 | 17975 ft | 341 kts | 281° |
| 2026-05-01 09:58 | 51.83387 | -0.92368 | 17624 ft | 329 kts | 281° |
| 2026-05-01 09:59 | 51.83983 | -0.95919 | 17161 ft | 326 kts | 281° |
| 2026-05-01 09:59 | 51.84806 | -0.99385 | 16987 ft | 337 kts | 298° |
| 2026-05-01 09:59 | 51.86299 | -1.02298 | 16664 ft | 347 kts | 316° |
| 2026-05-01 09:59 | 51.88163 | -1.04770 | 16267 ft | 347 kts | 318° |
| 2026-05-01 10:00 | 51.90040 | -1.07224 | 15937 ft | 346 kts | 319° |
| 2026-05-01 10:00 | 51.91923 | -1.09661 | 15630 ft | 346 kts | 319° |
| 2026-05-01 10:00 | 51.93791 | -1.12065 | 15335 ft | 344 kts | 319° |
| 2026-05-01 10:00 | 51.95665 | -1.14473 | 15050 ft | 343 kts | 319° |
| 2026-05-01 10:01 | 51.97530 | -1.16868 | 14756 ft | 342 kts | 319° |
| 2026-05-01 10:01 | 51.99379 | -1.19243 | 14475 ft | 340 kts | 319° |
| 2026-05-01 10:01 | 52.01230 | -1.21622 | 14184 ft | 339 kts | 319° |
| 2026-05-01 10:01 | 52.03072 | -1.23994 | 13905 ft | 338 kts | 319° |
| 2026-05-01 10:02 | 52.04912 | -1.26365 | 13612 ft | 336 kts | 319° |
| 2026-05-01 10:02 | 52.06735 | -1.28715 | 13312 ft | 333 kts | 319° |
| 2026-05-01 10:02 | 52.08538 | -1.31043 | 13025 ft | 329 kts | 319° |
| 2026-05-01 10:02 | 52.10328 | -1.33355 | 12752 ft | 327 kts | 319° |
| 2026-05-01 10:03 | 52.12112 | -1.35664 | 12492 ft | 327 kts | 319° |
| 2026-05-01 10:03 | 52.13890 | -1.37968 | 12210 ft | 325 kts | 319° |
| 2026-05-01 10:03 | 52.15652 | -1.40252 | 11930 ft | 322 kts | 319° |
| 2026-05-01 10:03 | 52.17396 | -1.42515 | 11662 ft | 319 kts | 319° |
| 2026-05-01 10:04 | 52.19126 | -1.44762 | 11371 ft | 317 kts | 319° |
| 2026-05-01 10:04 | 52.20818 | -1.46962 | 11104 ft | 314 kts | 319° |
| 2026-05-01 10:04 | 52.22521 | -1.49180 | 10824 ft | 312 kts | 319° |
| 2026-05-01 10:04 | 52.24207 | -1.51378 | 10556 ft | 309 kts | 319° |
| 2026-05-01 10:05 | 52.25875 | -1.53554 | 10312 ft | 305 kts | 319° |
| 2026-05-01 10:05 | 52.27526 | -1.55709 | 10038 ft | 302 kts | 318° |
| 2026-05-01 10:05 | 52.29159 | -1.57841 | 9757 ft | 299 kts | 318° |
| 2026-05-01 10:05 | 52.30771 | -1.59952 | 9475 ft | 295 kts | 318° |
| 2026-05-01 10:06 | 52.32364 | -1.62039 | 9221 ft | 292 kts | 318° |
| 2026-05-01 10:06 | 52.33925 | -1.64115 | 9044 ft | 285 kts | 314° |
| 2026-05-01 10:06 | 52.35028 | -1.66685 | 8900 ft | 269 kts | 286° |
| 2026-05-01 10:06 | 52.35560 | -1.69544 | 8839 ft | 263 kts | 288° |
| 2026-05-01 10:07 | 52.36578 | -1.72145 | 8627 ft | 279 kts | 308° |
| 2026-05-01 10:07 | 52.37911 | -1.74505 | 8250 ft | 285 kts | 310° |
| 2026-05-01 10:07 | 52.39293 | -1.76902 | 7742 ft | 294 kts | 310° |
| 2026-05-01 10:07 | 52.40693 | -1.79342 | 7207 ft | 294 kts | 310° |
| 2026-05-01 10:08 | 52.43441 | -1.84171 | 6298 ft | 286 kts | 310° |
| 2026-05-01 10:08 | 52.44788 | -1.86553 | 5871 ft | 281 kts | 310° |
| 2026-05-01 10:08 | 52.46094 | -1.88866 | 5408 ft | 278 kts | 310° |
| 2026-05-01 10:09 | 52.47401 | -1.91190 | 4978 ft | 276 kts | 310° |
| 2026-05-01 10:09 | 52.48701 | -1.93508 | 4512 ft | 275 kts | 310° |
| 2026-05-01 10:09 | 52.49992 | -1.95805 | 4087 ft | 272 kts | 310° |
| 2026-05-01 10:09 | 52.51271 | -1.98092 | 3639 ft | 272 kts | 310° |
| 2026-05-01 10:10 | 52.52561 | -2.00371 | 3190 ft | 271 kts | 311° |
| 2026-05-01 10:10 | 52.53857 | -2.02602 | 2750 ft | 269 kts | 310° |
| 2026-05-01 10:10 | 52.56795 | -2.05515 | 2499 ft | 242 kts | 4° |
| 2026-05-01 10:11 | 52.58299 | -2.04517 | 2479 ft | 232 kts | 45° |
| 2026-05-01 10:11 | 52.59111 | -2.02368 | 2530 ft | 216 kts | 75° |
| 2026-05-01 10:11 | 52.59403 | -1.99976 | 2591 ft | 212 kts | 90° |
| 2026-05-01 10:11 | 52.59334 | -1.97593 | 2520 ft | 206 kts | 102° |
| 2026-05-01 10:12 | 52.59110 | -1.95271 | 2461 ft | 205 kts | 106° |
| 2026-05-01 10:12 | 52.58882 | -1.92996 | 2501 ft | 205 kts | 98° |
| 2026-05-01 10:12 | 52.57920 | -1.89019 | 2478 ft | 177 kts | 140° |
| 2026-05-01 10:13 | 52.56967 | -1.87762 | 2536 ft | 172 kts | 147° |
| 2026-05-01 10:13 | 52.55999 | -1.86653 | 2508 ft | 166 kts | 147° |
| 2026-05-01 10:13 | 52.55051 | -1.85577 | 2345 ft | 162 kts | 148° |
| 2026-05-01 10:14 | 52.53295 | -1.83616 | 2001 ft | 142 kts | 148° |
| 2026-05-01 10:14 | 52.52495 | -1.82726 | 1844 ft | 138 kts | 148° |
| 2026-05-01 10:14 | 52.51705 | -1.81838 | 1644 ft | 137 kts | 148° |
| 2026-05-01 10:14 | 52.50920 | -1.80974 | 1454 ft | 136 kts | 149° |
| 2026-05-01 10:15 | 52.50128 | -1.80122 | 1217 ft | 138 kts | 148° |
| 2026-05-01 10:15 | 52.49320 | -1.79208 | 1049 ft | 139 kts | 145° |
| 2026-05-01 10:15 | 52.48523 | -1.78296 | 849 ft | 142 kts | 148° |
| 2026-05-01 10:15 | 52.47692 | -1.77370 | 672 ft | 144 kts | 147° |
| 2026-05-01 10:16 | 52.46890 | -1.76473 | 469 ft | 136 kts | 145° |
| 2026-05-01 10:16 | 52.46112 | -1.75608 | 326 ft | 137 kts | 145° |
| 2026-05-01 10:16 | 52.45086 | -1.74468 | 331 ft | 35 kts | 146° |
| 2026-05-01 10:17 | 52.44956 | -1.74319 | 327 ft | 12 kts | 129° |
| 2026-05-01 10:17 | 52.44967 | -1.74113 | 328 ft | 11 kts | 75° |
| 2026-05-01 10:17 | 52.44986 | -1.73988 | 326 ft | 11 kts | 75° |
| 2026-05-01 10:18 | 52.45051 | -1.73797 | 325 ft | 10 kts | 57° |
| 2026-05-01 10:18 | 52.45102 | -1.73710 | 326 ft | 12 kts | 49° |
| 2026-05-01 10:18 | 52.45146 | -1.73612 | 324 ft | 9 kts | 58° |
| 2026-05-01 10:19 | 52.45156 | -1.73584 | 324 ft | 1 kts | 61° |
| 2026-05-01 10:19 | 52.45157 | -1.73570 | 325 ft | 2 kts | 87° |
| 2026-05-01 10:19 | 52.45147 | -1.73535 | 326 ft | 4 kts | 132° |
| 2026-05-01 10:20 | 52.45118 | -1.73493 | 326 ft | 0 kts | 141° |